createdAt,value
2022-08-03T00:01:18.795Z,24.21
2022-08-03T00:02:50.737Z,24.21
2022-08-03T00:04:22.813Z,24.20
2022-08-03T00:06:05.951Z,24.18
2022-08-03T00:07:38.860Z,24.17
2022-08-03T00:09:10.924Z,24.13
2022-08-03T00:10:42.765Z,24.11
2022-08-03T00:12:14.892Z,24.07
2022-08-03T00:13:47.066Z,24.05
2022-08-03T00:15:19.117Z,24.04
2022-08-03T00:16:51.193Z,24.02
2022-08-03T00:18:23.051Z,24.00
2022-08-03T00:19:57.875Z,23.98
2022-08-03T00:21:29.808Z,23.92
2022-08-03T00:23:01.758Z,23.89
2022-08-03T00:24:36.225Z,23.87
2022-08-03T00:26:08.099Z,23.87
2022-08-03T00:27:39.911Z,23.86
2022-08-03T00:29:11.862Z,23.85
2022-08-03T00:30:43.727Z,23.82
2022-08-03T00:32:16.973Z,23.80
2022-08-03T00:33:59.023Z,23.79
2022-08-03T00:35:50.041Z,23.77
2022-08-03T00:37:22.990Z,23.76
2022-08-03T00:39:12.905Z,23.72
2022-08-03T00:40:44.790Z,23.69
2022-08-03T00:42:17.019Z,23.67
2022-08-03T00:43:49.058Z,23.65
2022-08-03T00:45:25.756Z,23.61
2022-08-03T00:46:57.654Z,23.61
2022-08-03T00:48:33.383Z,23.58
2022-08-03T00:50:06.073Z,23.57
2022-08-03T00:51:37.932Z,23.56
2022-08-03T00:53:13.617Z,23.53
2022-08-03T00:54:45.531Z,23.52
2022-08-03T00:56:18.186Z,23.51
2022-08-03T00:57:50.047Z,23.50
2022-08-03T00:59:22.047Z,23.44
2022-08-03T01:00:53.935Z,23.41
2022-08-03T01:02:29.376Z,23.41
2022-08-03T01:04:01.353Z,23.40
2022-08-03T01:05:57.838Z,23.39
2022-08-03T01:07:57.454Z,23.37
2022-08-03T01:09:41.714Z,23.35
2022-08-03T01:11:24.868Z,23.35
2022-08-03T01:13:05.019Z,23.32
2022-08-03T01:14:47.093Z,23.29
2022-08-03T01:16:36.656Z,23.27
2022-08-03T01:18:19.211Z,23.23
2022-08-03T01:20:01.874Z,23.21
2022-08-03T01:21:40.038Z,23.19
2022-08-03T01:23:17.534Z,23.18
2022-08-03T01:25:07.667Z,23.15
2022-08-03T01:27:05.774Z,23.13
2022-08-03T01:29:02.282Z,23.12
2022-08-03T01:30:35.553Z,23.09
2022-08-03T01:32:58.411Z,23.08
2022-08-03T01:34:12.202Z,23.04
2022-08-03T01:35:51.078Z,23.03
2022-08-03T01:37:28.447Z,23.02
2022-08-03T01:39:02.449Z,23.01
2022-08-03T01:40:36.915Z,23.02
2022-08-03T01:42:10.596Z,23.00
2022-08-03T01:44:27.623Z,22.98
2022-08-03T01:45:36.778Z,22.97
2022-08-03T01:47:32.605Z,22.95
2022-08-03T01:49:09.376Z,22.92
2022-08-03T01:50:42.117Z,22.87
2022-08-03T01:52:14.838Z,22.83
2022-08-03T01:53:47.334Z,22.80
2022-08-03T01:55:20.437Z,22.74
2022-08-03T01:56:55.737Z,22.68
2022-08-03T01:58:28.365Z,22.65
2022-08-03T02:00:00.079Z,22.66
2022-08-03T02:02:28.311Z,22.62
2022-08-03T02:03:27.353Z,22.60
2022-08-03T02:05:01.579Z,22.60
2022-08-03T02:07:00.237Z,22.59
2022-08-03T02:08:31.131Z,22.59
2022-08-03T02:10:06.212Z,22.61
2022-08-03T02:11:38.523Z,22.60
2022-08-03T02:13:10.886Z,22.58
2022-08-03T02:14:44.621Z,22.56
2022-08-03T02:16:18.515Z,22.54
2022-08-03T02:17:50.604Z,22.50
2022-08-03T02:19:23.606Z,22.48
2022-08-03T02:20:56.090Z,22.46
2022-08-03T02:22:29.340Z,22.45
2022-08-03T02:24:01.310Z,22.44
2022-08-03T02:25:35.615Z,22.43
2022-08-03T02:27:15.311Z,22.44
2022-08-03T02:28:49.901Z,22.42
2022-08-03T02:30:25.425Z,22.40
2022-08-03T02:31:59.909Z,22.39
2022-08-03T02:34:21.688Z,22.37
2022-08-03T02:35:54.587Z,22.32
2022-08-03T02:37:29.347Z,22.28
2022-08-03T02:39:01.900Z,22.26
2022-08-03T02:40:34.203Z,22.23
2022-08-03T02:42:10.337Z,22.21
2022-08-03T02:44:07.011Z,22.22
2022-08-03T02:45:45.593Z,22.20
2022-08-03T02:47:21.597Z,22.14
2022-08-03T02:48:54.920Z,22.13
2022-08-03T02:50:27.752Z,22.07
2022-08-03T02:52:00.310Z,22.03
2022-08-03T02:53:33.864Z,21.96
2022-08-03T02:55:07.248Z,21.93
2022-08-03T02:56:39.950Z,21.91
2022-08-03T02:58:12.135Z,21.92
2022-08-03T02:59:44.469Z,21.90
2022-08-03T03:01:19.436Z,21.85
2022-08-03T03:02:52.195Z,21.84
2022-08-03T03:04:26.354Z,21.82
2022-08-03T03:06:05.749Z,21.79
2022-08-03T03:07:46.869Z,21.77
2022-08-03T03:09:27.203Z,21.78
2022-08-03T03:11:13.809Z,21.76
2022-08-03T03:12:45.791Z,21.75
2022-08-03T03:14:18.108Z,21.73
2022-08-03T03:16:06.492Z,21.74
2022-08-03T03:17:39.405Z,21.73
2022-08-03T03:19:12.969Z,21.69
2022-08-03T03:20:45.668Z,21.72
2022-08-03T03:22:17.605Z,21.73
2022-08-03T03:23:49.796Z,21.72
2022-08-03T03:25:21.739Z,21.66
2022-08-03T03:26:54.888Z,21.61
2022-08-03T03:28:26.783Z,21.56
2022-08-03T03:30:30.323Z,21.52
2022-08-03T03:32:02.631Z,21.47
2022-08-03T03:33:35.530Z,21.46
2022-08-03T03:35:08.085Z,21.42
2022-08-03T03:36:39.956Z,21.40
2022-08-03T03:38:11.987Z,21.40
2022-08-03T03:39:43.871Z,21.37
2022-08-03T03:41:15.784Z,21.36
2022-08-03T03:42:47.771Z,21.33
2022-08-03T03:44:19.682Z,21.31
2022-08-03T03:45:54.865Z,21.27
2022-08-03T03:47:32.270Z,21.26
2022-08-03T03:49:07.448Z,21.24
2022-08-03T03:50:43.375Z,21.21
2022-08-03T03:52:17.022Z,21.18
2022-08-03T03:54:02.505Z,21.17
2022-08-03T03:55:34.401Z,21.10
2022-08-03T03:57:06.267Z,21.08
2022-08-03T03:58:38.177Z,21.05
2022-08-03T04:00:11.481Z,21.05
2022-08-03T04:01:43.323Z,21.09
2022-08-03T04:03:15.360Z,21.07
2022-08-03T04:05:05.797Z,21.04
2022-08-03T04:06:55.959Z,21.03
2022-08-03T04:08:46.514Z,21.03
2022-08-03T04:10:41.626Z,21.03
2022-08-03T04:12:13.945Z,20.99
2022-08-03T04:14:04.457Z,21.00
2022-08-03T04:15:38.637Z,21.01
2022-08-03T04:17:12.391Z,21.03
2022-08-03T04:18:48.652Z,21.06
2022-08-03T04:20:21.211Z,21.09
2022-08-03T04:21:57.000Z,21.13
2022-08-03T04:23:31.575Z,21.16
2022-08-03T04:25:05.970Z,21.19
2022-08-03T04:26:40.604Z,21.18
2022-08-03T04:28:31.370Z,21.20
2022-08-03T04:30:06.555Z,21.19
2022-08-03T04:31:39.218Z,21.17
2022-08-03T04:33:11.059Z,21.19
2022-08-03T04:34:45.093Z,21.22
2022-08-03T04:36:26.444Z,21.21
2022-08-03T04:38:06.229Z,21.24
2022-08-03T04:39:39.676Z,21.23
2022-08-03T04:41:11.959Z,21.17
2022-08-03T04:42:46.352Z,21.16
2022-08-03T04:44:21.099Z,21.20
2022-08-03T04:46:01.588Z,21.21
2022-08-03T04:47:34.101Z,21.24
2022-08-03T04:49:06.637Z,21.27
2022-08-03T04:50:38.670Z,21.27
2022-08-03T04:52:11.031Z,21.30
2022-08-03T04:53:43.791Z,21.31
2022-08-03T04:55:28.346Z,21.32
2022-08-03T04:57:00.198Z,21.32
2022-08-03T04:58:34.592Z,21.32
2022-08-03T05:00:06.974Z,21.24
2022-08-03T05:01:40.356Z,21.20
2022-08-03T05:03:23.505Z,21.17
2022-08-03T05:04:56.384Z,21.12
2022-08-03T05:06:28.274Z,21.10
2022-08-03T05:08:04.185Z,21.07
2022-08-03T05:09:50.455Z,21.07
2022-08-03T05:11:27.485Z,21.07
2022-08-03T05:12:59.457Z,21.08
2022-08-03T05:14:31.308Z,21.09
2022-08-03T05:16:03.153Z,21.10
2022-08-03T05:17:35.014Z,21.10
2022-08-03T05:19:07.717Z,21.14
2022-08-03T05:20:39.676Z,21.16
2022-08-03T05:22:11.501Z,21.14
2022-08-03T05:23:44.450Z,21.17
2022-08-03T05:25:17.372Z,21.16
2022-08-03T05:26:51.823Z,21.16
2022-08-03T05:28:23.731Z,21.17
2022-08-03T05:29:55.589Z,21.17
2022-08-03T05:31:27.392Z,21.16
2022-08-03T05:33:00.092Z,21.19
2022-08-03T05:34:32.144Z,21.22
2022-08-03T05:36:04.636Z,21.20
2022-08-03T05:37:36.980Z,21.21
2022-08-03T05:39:08.775Z,21.21
2022-08-03T05:40:40.648Z,21.21
2022-08-03T05:42:28.956Z,21.23
2022-08-03T05:44:01.628Z,21.27
2022-08-03T05:45:35.932Z,21.27
2022-08-03T05:47:07.878Z,21.29
2022-08-03T05:48:39.831Z,21.31
2022-08-03T05:50:12.904Z,21.33
2022-08-03T05:51:44.937Z,21.36
2022-08-03T05:53:16.808Z,21.39
2022-08-03T05:54:56.962Z,21.40
2022-08-03T05:56:29.448Z,21.45
2022-08-03T05:58:03.946Z,21.47
2022-08-03T05:59:38.995Z,21.50
2022-08-03T06:01:11.019Z,21.52
2022-08-03T06:02:43.353Z,21.55
2022-08-03T06:04:15.281Z,21.58
2022-08-03T06:05:55.554Z,21.62
2022-08-03T06:07:32.885Z,21.67
2022-08-03T06:09:04.809Z,21.69
2022-08-03T06:10:38.368Z,21.73
2022-08-03T06:12:14.093Z,21.75
2022-08-03T06:13:49.715Z,21.82
2022-08-03T06:15:21.634Z,21.92
2022-08-03T06:16:53.527Z,22.04
2022-08-03T06:18:25.910Z,22.11
2022-08-03T06:19:57.739Z,22.20
2022-08-03T06:21:29.578Z,22.24
2022-08-03T06:23:02.954Z,22.28
2022-08-03T06:24:34.869Z,22.32
2022-08-03T06:26:06.812Z,22.36
2022-08-03T06:27:40.310Z,22.43
2022-08-03T06:29:12.121Z,22.47
2022-08-03T06:30:44.884Z,22.51
2022-08-03T06:32:16.701Z,22.56
2022-08-03T06:34:33.405Z,22.63
2022-08-03T06:35:45.243Z,22.63
2022-08-03T06:37:17.060Z,22.62
2022-08-03T06:38:48.903Z,22.68
2022-08-03T06:40:31.583Z,22.73
2022-08-03T06:42:04.282Z,22.76
2022-08-03T06:43:38.154Z,22.84
2022-08-03T06:45:32.144Z,22.85
2022-08-03T06:47:04.261Z,22.88
2022-08-03T06:48:36.084Z,22.91
2022-08-03T06:50:16.423Z,22.95
2022-08-03T06:52:03.687Z,23.01
2022-08-03T06:53:38.758Z,23.11
2022-08-03T06:55:10.612Z,23.21
2022-08-03T06:56:42.564Z,23.29
2022-08-03T06:58:14.462Z,23.46
2022-08-03T07:00:08.445Z,23.56
2022-08-03T07:01:38.256Z,23.69
2022-08-03T07:03:10.124Z,23.76
2022-08-03T07:04:42.047Z,23.79
2022-08-03T07:06:13.900Z,23.92
2022-08-03T07:07:46.181Z,24.05
2022-08-03T07:09:18.022Z,24.11
2022-08-03T07:10:50.141Z,24.22
2022-08-03T07:12:22.106Z,24.26
2022-08-03T07:13:54.012Z,24.29
2022-08-03T07:15:54.326Z,24.32
2022-08-03T07:17:18.682Z,24.35
2022-08-03T07:18:50.594Z,24.41
2022-08-03T07:20:22.817Z,24.48
2022-08-03T07:21:56.470Z,24.60
2022-08-03T07:23:34.760Z,24.69
2022-08-03T07:25:06.996Z,24.77
2022-08-03T07:26:38.841Z,24.79
2022-08-03T07:28:10.800Z,24.91
2022-08-03T07:29:45.338Z,24.95
2022-08-03T07:31:17.189Z,25.00
2022-08-03T07:32:49.871Z,25.04
2022-08-03T07:34:22.673Z,25.13
2022-08-03T07:35:54.680Z,25.21
2022-08-03T07:37:26.504Z,25.30
2022-08-03T07:38:58.512Z,25.39
2022-08-03T07:40:31.599Z,25.48
2022-08-03T07:42:04.322Z,25.60
2022-08-03T07:43:36.185Z,25.67
2022-08-03T07:45:08.978Z,25.73
2022-08-03T07:46:48.658Z,25.79
2022-08-03T07:48:20.577Z,25.84
2022-08-03T07:49:55.834Z,25.90
2022-08-03T07:51:27.753Z,25.93
2022-08-03T07:52:59.990Z,26.02
2022-08-03T07:54:32.243Z,26.12
2022-08-03T07:56:10.763Z,26.17
2022-08-03T07:57:44.222Z,26.27
2022-08-03T07:59:18.433Z,26.35
2022-08-03T08:00:55.183Z,26.37
2022-08-03T08:02:27.127Z,26.48
2022-08-03T08:03:59.525Z,26.50
2022-08-03T08:05:31.656Z,26.56
2022-08-03T08:07:03.577Z,26.63
2022-08-03T08:08:35.435Z,26.73
2022-08-03T08:10:11.041Z,26.78
2022-08-03T08:11:42.868Z,26.82
2022-08-03T08:13:14.782Z,26.89
2022-08-03T08:14:46.904Z,26.97
2022-08-03T08:16:18.803Z,27.09
2022-08-03T08:18:03.494Z,27.22
2022-08-03T08:19:36.788Z,27.26
2022-08-03T08:21:13.378Z,27.40
2022-08-03T08:22:45.391Z,27.46
2022-08-03T08:24:20.359Z,27.56
2022-08-03T08:25:52.960Z,27.62
2022-08-03T08:27:27.448Z,27.75
2022-08-03T08:28:59.382Z,27.78
2022-08-03T08:30:32.804Z,27.81
2022-08-03T08:32:04.973Z,27.94
2022-08-03T08:34:02.461Z,28.08
2022-08-03T08:35:29.118Z,28.04
2022-08-03T08:37:01.795Z,28.13
2022-08-03T08:38:38.756Z,28.17
2022-08-03T08:40:11.443Z,28.25
2022-08-03T08:41:45.765Z,28.39
2022-08-03T08:43:17.860Z,28.51
2022-08-03T08:44:49.897Z,28.65
2022-08-03T08:46:23.859Z,28.72
2022-08-03T08:48:00.985Z,28.83
2022-08-03T08:49:36.306Z,28.85
2022-08-03T08:51:09.869Z,28.97
2022-08-03T08:52:42.518Z,29.12
2022-08-03T08:54:15.828Z,29.24
2022-08-03T08:55:56.938Z,29.31
2022-08-03T08:57:43.084Z,29.40
2022-08-03T08:59:15.724Z,29.37
2022-08-03T09:00:48.610Z,29.45
2022-08-03T09:02:20.579Z,29.53
2022-08-03T09:03:54.319Z,29.52
2022-08-03T09:05:53.883Z,29.55
2022-08-03T09:07:20.305Z,29.55
2022-08-03T09:08:52.673Z,29.68
2022-08-03T09:10:26.803Z,29.75
2022-08-03T09:12:20.900Z,29.77
2022-08-03T09:13:50.739Z,29.88
2022-08-03T09:15:31.734Z,29.97
2022-08-03T09:17:04.643Z,29.99
2022-08-03T09:18:36.555Z,30.02
2022-08-03T09:20:10.041Z,30.00
2022-08-03T09:21:41.923Z,30.11
2022-08-03T09:23:59.466Z,30.25
2022-08-03T09:25:27.381Z,30.40
2022-08-03T09:26:59.347Z,30.35
2022-08-03T09:28:58.050Z,30.38
2022-08-03T09:30:34.724Z,30.31
2022-08-03T09:32:07.033Z,30.42
2022-08-03T09:33:48.859Z,30.60
2022-08-03T09:35:51.767Z,30.64
2022-08-03T09:37:20.917Z,30.69
2022-08-03T09:39:42.493Z,30.66
2022-08-03T09:41:20.124Z,30.67
2022-08-03T09:42:58.789Z,30.68
2022-08-03T09:44:38.629Z,30.75
2022-08-03T09:46:10.518Z,30.81
2022-08-03T09:47:44.943Z,30.91
2022-08-03T09:49:17.685Z,31.02
2022-08-03T09:50:58.535Z,31.05
2022-08-03T09:52:50.078Z,31.17
2022-08-03T09:54:31.891Z,31.19
2022-08-03T09:56:34.728Z,31.30
2022-08-03T09:58:09.307Z,31.17
2022-08-03T09:59:41.547Z,31.16
2022-08-03T10:01:24.215Z,31.16
2022-08-03T10:03:04.853Z,31.22
2022-08-03T10:04:47.472Z,31.33
2022-08-03T10:06:20.667Z,31.59
2022-08-03T10:07:52.598Z,31.91
2022-08-03T10:09:24.428Z,32.18
2022-08-03T10:11:01.117Z,32.48
2022-08-03T10:12:33.078Z,32.66
2022-08-03T10:14:19.711Z,32.67
2022-08-03T10:16:22.547Z,32.72
2022-08-03T10:17:43.635Z,32.63
2022-08-03T10:19:16.489Z,32.87
2022-08-03T10:20:56.081Z,33.11
2022-08-03T10:22:29.845Z,33.26
2022-08-03T10:24:07.155Z,33.39
2022-08-03T10:25:40.822Z,33.43
2022-08-03T10:27:13.756Z,33.60
2022-08-03T10:28:50.629Z,33.69
2022-08-03T10:30:26.502Z,33.41
2022-08-03T10:31:59.117Z,33.33
2022-08-03T10:33:51.695Z,33.33
2022-08-03T10:35:29.720Z,33.16
2022-08-03T10:37:04.597Z,33.22
2022-08-03T10:38:41.583Z,33.23
2022-08-03T10:40:33.271Z,33.39
2022-08-03T10:42:14.704Z,33.51
2022-08-03T10:44:13.774Z,33.69
2022-08-03T10:45:46.383Z,33.77
2022-08-03T10:47:18.671Z,33.77
2022-08-03T10:48:52.545Z,33.76
2022-08-03T10:50:25.326Z,33.82
2022-08-03T10:51:57.273Z,33.84
2022-08-03T10:53:55.047Z,33.90
2022-08-03T10:55:56.217Z,33.89
2022-08-03T10:57:50.447Z,34.21
2022-08-03T10:59:46.018Z,34.14
2022-08-03T11:01:19.289Z,34.35
2022-08-03T11:03:18.698Z,34.43
2022-08-03T11:05:26.477Z,34.60
2022-08-03T11:07:17.717Z,34.75
2022-08-03T11:08:51.205Z,34.58
2022-08-03T11:10:32.315Z,34.34
2022-08-03T11:12:30.836Z,34.39
2022-08-03T11:14:04.935Z,34.43
2022-08-03T11:15:37.551Z,34.38
2022-08-03T11:17:14.475Z,34.46
2022-08-03T11:18:57.498Z,34.60
2022-08-03T11:20:54.191Z,34.64
2022-08-03T11:22:28.402Z,34.44
2022-08-03T11:24:04.309Z,34.26
2022-08-03T11:26:12.372Z,34.34
2022-08-03T11:27:44.317Z,34.39
2022-08-03T11:29:29.560Z,34.43
2022-08-03T11:31:49.746Z,34.49
2022-08-03T11:33:30.035Z,34.50
2022-08-03T11:35:25.595Z,34.37
2022-08-03T11:37:30.115Z,34.39
2022-08-03T11:39:16.962Z,34.69
2022-08-03T11:40:50.939Z,34.81
2022-08-03T11:42:25.897Z,34.95
2022-08-03T11:43:57.793Z,34.96
2022-08-03T11:45:31.338Z,34.91
2022-08-03T11:47:03.185Z,34.77
2022-08-03T11:48:45.772Z,34.78
2022-08-03T11:50:19.134Z,34.83
2022-08-03T11:51:54.145Z,34.87
2022-08-03T11:53:26.003Z,34.81
2022-08-03T11:54:57.897Z,34.83
2022-08-03T11:56:47.915Z,34.94
2022-08-03T11:59:01.643Z,35.04
2022-08-03T12:00:32.400Z,35.20
2022-08-03T12:02:12.147Z,35.27
2022-08-03T12:03:44.136Z,35.27
2022-08-03T12:05:16.073Z,35.27
2022-08-03T12:07:01.294Z,35.35
2022-08-03T12:08:34.156Z,35.48
2022-08-03T12:10:11.567Z,35.61
2022-08-03T12:11:50.909Z,35.71
2022-08-03T12:14:08.809Z,35.77
2022-08-03T12:15:36.500Z,35.72
2022-08-03T12:17:08.377Z,35.74
2022-08-03T12:18:40.282Z,35.62
2022-08-03T12:20:22.196Z,35.56
2022-08-03T12:22:06.581Z,35.63
2022-08-03T12:23:39.271Z,35.61
2022-08-03T12:25:39.265Z,35.64
2022-08-03T12:27:11.864Z,35.81
2022-08-03T12:28:50.130Z,35.83
2022-08-03T12:30:23.717Z,35.74
2022-08-03T12:31:56.613Z,35.76
2022-08-03T12:33:28.685Z,35.62
2022-08-03T12:35:06.035Z,35.50
2022-08-03T12:36:39.211Z,35.35
2022-08-03T12:38:12.983Z,35.31
2022-08-03T12:40:02.511Z,35.28
2022-08-03T12:41:39.710Z,35.37
2022-08-03T12:43:13.197Z,35.61
2022-08-03T12:44:46.382Z,35.80
2022-08-03T12:46:20.217Z,35.72
2022-08-03T12:48:00.488Z,35.70
2022-08-03T12:49:54.148Z,35.61
2022-08-03T12:51:27.687Z,35.58
2022-08-03T12:53:01.271Z,35.43
2022-08-03T12:54:34.700Z,35.25
2022-08-03T12:56:06.666Z,35.10
2022-08-03T12:57:42.219Z,35.02
2022-08-03T12:59:32.505Z,34.93
2022-08-03T13:01:09.677Z,34.88
2022-08-03T13:02:46.329Z,34.90
2022-08-03T13:04:35.290Z,34.90
2022-08-03T13:06:25.857Z,35.03
2022-08-03T13:07:58.425Z,35.11
2022-08-03T13:09:33.264Z,35.05
2022-08-03T13:11:55.373Z,35.16
2022-08-03T13:13:20.884Z,35.26
2022-08-03T13:14:58.659Z,35.33
2022-08-03T13:16:30.514Z,35.49
2022-08-03T13:18:02.456Z,35.58
2022-08-03T13:19:38.696Z,35.64
2022-08-03T13:21:10.649Z,35.77
2022-08-03T13:22:43.555Z,35.93
2022-08-03T13:24:15.533Z,36.06
2022-08-03T13:25:55.149Z,36.04
2022-08-03T13:28:03.893Z,35.97
2022-08-03T13:29:21.188Z,36.09
2022-08-03T13:30:54.886Z,36.09
2022-08-03T13:32:26.898Z,36.13
2022-08-03T13:33:58.811Z,36.16
2022-08-03T13:35:30.680Z,36.14
2022-08-03T13:37:10.264Z,36.29
2022-08-03T13:38:42.393Z,36.35
2022-08-03T13:40:14.771Z,36.37
2022-08-03T13:41:47.181Z,36.40
2022-08-03T13:43:20.049Z,36.48
2022-08-03T13:44:52.062Z,36.59
2022-08-03T13:46:24.232Z,36.72
2022-08-03T13:47:56.143Z,36.78
2022-08-03T13:49:29.085Z,36.91
2022-08-03T13:51:05.330Z,36.78
2022-08-03T13:52:46.515Z,36.76
2022-08-03T13:54:21.431Z,36.67
2022-08-03T13:55:55.995Z,36.70
2022-08-03T13:58:04.545Z,36.71
2022-08-03T13:59:20.905Z,36.56
2022-08-03T14:00:52.752Z,36.64
2022-08-03T14:02:27.900Z,36.74
2022-08-03T14:03:59.873Z,36.89
2022-08-03T14:05:32.376Z,36.93
2022-08-03T14:07:04.531Z,37.08
2022-08-03T14:08:36.439Z,37.15
2022-08-03T14:10:08.839Z,37.10
2022-08-03T14:12:07.172Z,37.13
2022-08-03T14:13:33.860Z,37.23
2022-08-03T14:15:10.190Z,37.28
2022-08-03T14:16:43.372Z,37.26
2022-08-03T14:18:28.384Z,37.20
2022-08-03T14:20:25.957Z,37.15
2022-08-03T14:22:06.184Z,37.22
2022-08-03T14:23:38.966Z,36.95
2022-08-03T14:25:10.970Z,36.72
2022-08-03T14:26:46.235Z,36.63
2022-08-03T14:28:23.236Z,36.52
2022-08-03T14:29:59.797Z,36.50
2022-08-03T14:32:11.292Z,36.49
2022-08-03T14:33:24.351Z,36.57
2022-08-03T14:34:56.283Z,36.62
2022-08-03T14:36:28.202Z,36.59
2022-08-03T14:38:00.148Z,36.56
2022-08-03T14:40:01.814Z,36.67
2022-08-03T14:41:23.917Z,36.84
2022-08-03T14:42:56.086Z,37.00
2022-08-03T14:44:27.983Z,36.97
2022-08-03T14:45:59.915Z,36.97
2022-08-03T14:47:31.877Z,37.01
2022-08-03T14:50:36.395Z,36.96
2022-08-03T14:50:57.271Z,37.07
2022-08-03T14:52:29.263Z,37.13
2022-08-03T14:54:09.353Z,37.08
2022-08-03T14:55:49.762Z,36.75
2022-08-03T14:57:26.159Z,36.54
2022-08-03T14:58:58.029Z,36.54
2022-08-03T15:00:29.821Z,36.54
2022-08-03T15:02:10.192Z,36.48
2022-08-03T15:03:47.905Z,36.37
2022-08-03T15:05:19.783Z,36.18
2022-08-03T15:06:51.691Z,36.11
2022-08-03T15:08:27.495Z,36.01
2022-08-03T15:10:02.379Z,35.88
2022-08-03T15:11:34.592Z,35.87
2022-08-03T15:13:06.428Z,36.00
2022-08-03T15:14:38.287Z,36.11
2022-08-03T15:16:10.297Z,36.27
2022-08-03T15:17:59.641Z,36.38
2022-08-03T15:20:00.511Z,36.51
2022-08-03T15:21:46.885Z,36.61
2022-08-03T15:23:17.397Z,36.59
2022-08-03T15:24:49.265Z,36.64
2022-08-03T15:26:32.243Z,36.56
2022-08-03T15:28:07.152Z,36.52
2022-08-03T15:30:04.759Z,36.48
2022-08-03T15:31:30.940Z,36.38
2022-08-03T15:33:03.264Z,36.33
2022-08-03T15:34:35.109Z,36.37
2022-08-03T15:36:07.092Z,36.29
2022-08-03T15:37:41.498Z,36.31
2022-08-03T15:39:13.487Z,36.32
2022-08-03T15:40:45.893Z,36.32
2022-08-03T15:42:17.680Z,36.27
2022-08-03T15:43:50.497Z,36.21
2022-08-03T15:45:22.535Z,36.26
2022-08-03T15:46:54.395Z,36.32
2022-08-03T15:48:26.519Z,36.40
2022-08-03T15:49:58.383Z,36.39
2022-08-03T15:51:30.296Z,36.53
2022-08-03T15:53:02.116Z,36.37
2022-08-03T15:54:33.994Z,36.34
2022-08-03T15:56:12.136Z,36.36
2022-08-03T15:59:04.117Z,36.40
2022-08-03T15:59:38.016Z,36.47
2022-08-03T16:01:16.392Z,36.52
2022-08-03T16:02:51.053Z,36.62
2022-08-03T16:04:29.983Z,36.67
2022-08-03T16:06:05.882Z,36.72
2022-08-03T16:08:03.689Z,36.81
2022-08-03T16:09:42.368Z,36.76
2022-08-03T16:11:16.163Z,36.73
2022-08-03T16:12:48.806Z,36.75
2022-08-03T16:14:34.818Z,36.78
2022-08-03T16:16:12.219Z,36.78
2022-08-03T16:17:44.091Z,36.65
2022-08-03T16:19:16.113Z,36.69
2022-08-03T16:20:48.254Z,36.69
2022-08-03T16:22:22.920Z,36.71
2022-08-03T16:23:55.179Z,36.77
2022-08-03T16:25:28.049Z,36.71
2022-08-03T16:27:00.456Z,36.69
2022-08-03T16:28:34.276Z,36.58
2022-08-03T16:30:07.335Z,36.55
2022-08-03T16:31:39.716Z,36.55
2022-08-03T16:33:23.468Z,36.45
2022-08-03T16:34:55.325Z,36.46
2022-08-03T16:36:27.198Z,36.43
2022-08-03T16:38:10.089Z,36.45
2022-08-03T16:39:42.888Z,36.42
2022-08-03T16:41:14.750Z,36.40
2022-08-03T16:42:47.316Z,36.43
2022-08-03T16:44:28.271Z,36.34
2022-08-03T16:46:00.081Z,36.37
2022-08-03T16:47:31.976Z,36.43
2022-08-03T16:49:03.990Z,36.39
2022-08-03T16:50:36.510Z,36.22
2022-08-03T16:52:08.413Z,36.06
2022-08-03T16:54:05.473Z,36.06
2022-08-03T16:55:48.728Z,36.03
2022-08-03T16:57:56.079Z,36.02
2022-08-03T16:59:17.351Z,35.99
2022-08-03T17:00:51.005Z,35.96
2022-08-03T17:02:26.056Z,35.95
2022-08-03T17:04:04.620Z,36.01
2022-08-03T17:05:47.194Z,36.00
2022-08-03T17:07:20.465Z,36.03
2022-08-03T17:08:55.479Z,36.09
2022-08-03T17:10:27.698Z,36.03
2022-08-03T17:11:59.505Z,35.99
2022-08-03T17:13:38.871Z,35.88
2022-08-03T17:15:11.696Z,35.64
2022-08-03T17:16:51.901Z,35.62
2022-08-03T17:18:26.101Z,35.61
2022-08-03T17:19:59.711Z,35.61
2022-08-03T17:21:36.607Z,35.59
2022-08-03T17:23:34.105Z,35.62
2022-08-03T17:25:09.578Z,35.64
2022-08-03T17:26:55.450Z,35.64
2022-08-03T17:28:49.565Z,35.65
2022-08-03T17:30:21.872Z,35.56
2022-08-03T17:31:57.230Z,35.51
2022-08-03T17:33:35.430Z,35.54
2022-08-03T17:35:08.493Z,35.52
2022-08-03T17:38:41.274Z,35.46
2022-08-03T17:40:17.369Z,35.36
2022-08-03T17:41:50.672Z,35.28
2022-08-03T17:44:13.580Z,35.21
2022-08-03T17:45:17.957Z,35.14
2022-08-03T17:46:51.523Z,34.92
2022-08-03T17:48:25.689Z,34.75
2022-08-03T17:49:57.568Z,34.65
2022-08-03T17:51:53.048Z,34.58
2022-08-03T17:53:30.747Z,34.53
2022-08-03T17:55:55.981Z,34.47
2022-08-03T17:57:26.368Z,34.38
2022-08-03T17:59:08.603Z,34.33
2022-08-03T18:01:02.300Z,34.32
2022-08-03T18:03:04.025Z,34.24
2022-08-03T18:04:41.246Z,34.19
2022-08-03T18:06:13.466Z,34.11
2022-08-03T18:08:02.535Z,34.07
2022-08-03T18:10:04.772Z,34.01
2022-08-03T18:13:25.549Z,34.00
2022-08-03T18:15:07.593Z,33.99
2022-08-03T18:17:10.293Z,33.92
2022-08-03T18:18:44.147Z,33.86
2022-08-03T18:20:31.022Z,33.82
2022-08-03T18:22:06.800Z,33.78
2022-08-03T18:23:42.116Z,33.73
2022-08-03T18:25:45.694Z,33.68
2022-08-03T18:27:47.654Z,33.59
2022-08-03T18:30:53.596Z,33.52
2022-08-03T18:32:03.047Z,33.47
2022-08-03T18:34:17.133Z,33.40
2022-08-03T18:35:58.149Z,33.34
2022-08-03T18:37:33.378Z,33.31
2022-08-03T18:39:31.034Z,33.22
2022-08-03T18:41:12.679Z,33.18
2022-08-03T18:42:51.074Z,33.14
2022-08-03T18:44:52.538Z,33.13
2022-08-03T18:46:43.617Z,33.09
2022-08-03T18:48:27.035Z,33.05
2022-08-03T18:50:36.095Z,33.04
2022-08-03T18:52:37.748Z,32.98
2022-08-03T18:54:51.058Z,32.93
2022-08-03T18:56:49.873Z,32.90
2022-08-03T18:58:40.837Z,32.87
2022-08-03T19:00:17.205Z,32.84
2022-08-03T19:02:04.323Z,32.80
2022-08-03T19:03:43.282Z,32.76
2022-08-03T19:05:18.822Z,32.75
2022-08-03T19:06:57.607Z,32.70
2022-08-03T19:08:51.476Z,32.62
2022-08-03T19:10:26.701Z,32.56
2022-08-03T19:12:14.101Z,32.55
2022-08-03T19:13:51.471Z,32.50
2022-08-03T19:15:36.385Z,32.43
2022-08-03T19:17:10.700Z,32.39
2022-08-03T19:18:42.854Z,32.37
2022-08-03T19:20:14.828Z,32.33
2022-08-03T19:21:48.793Z,32.24
2022-08-03T19:23:34.028Z,32.19
2022-08-03T19:25:07.512Z,32.17
2022-08-03T19:26:44.099Z,32.13
2022-08-03T19:28:21.256Z,32.10
2022-08-03T19:30:08.296Z,32.04
2022-08-03T19:31:59.355Z,31.98
2022-08-03T19:33:57.418Z,31.94
2022-08-03T19:35:51.185Z,31.90
2022-08-03T19:37:24.190Z,31.85
2022-08-03T19:39:10.128Z,31.80
2022-08-03T19:40:45.524Z,31.74
2022-08-03T19:42:31.016Z,31.72
2022-08-03T19:44:07.066Z,31.66
2022-08-03T19:47:38.572Z,31.59
2022-08-03T19:49:18.509Z,31.55
2022-08-03T19:50:53.020Z,31.51
2022-08-03T19:52:31.583Z,31.47
2022-08-03T19:54:07.054Z,31.42
2022-08-03T19:55:49.048Z,31.37
2022-08-03T19:57:24.081Z,31.33
2022-08-03T19:58:58.147Z,31.28
2022-08-03T20:00:35.823Z,31.25
2022-08-03T20:02:10.213Z,31.21
2022-08-03T20:03:57.806Z,31.17
2022-08-03T20:05:30.164Z,31.14
2022-08-03T20:07:22.243Z,31.10
2022-08-03T20:08:54.989Z,31.04
2022-08-03T20:10:27.315Z,31.01
2022-08-03T20:11:59.258Z,30.96
2022-08-03T20:13:31.719Z,30.94
2022-08-03T20:15:14.124Z,30.91
2022-08-03T20:16:51.723Z,30.87
2022-08-03T20:18:23.598Z,30.81
2022-08-03T20:19:55.619Z,30.76
2022-08-03T20:21:32.139Z,30.71
2022-08-03T20:23:18.056Z,30.69
2022-08-03T20:24:53.081Z,30.67
2022-08-03T20:26:28.834Z,30.63
2022-08-03T20:28:14.779Z,30.62
2022-08-03T20:30:06.812Z,30.58
2022-08-03T20:31:40.383Z,30.51
2022-08-03T20:33:12.516Z,30.48
2022-08-03T20:34:51.072Z,30.45
2022-08-03T20:36:27.697Z,30.35
2022-08-03T20:38:00.002Z,30.31
2022-08-03T20:39:32.288Z,30.24
2022-08-03T20:41:04.651Z,30.18
2022-08-03T20:42:36.691Z,30.17
2022-08-03T20:44:08.570Z,30.12
2022-08-03T20:45:59.579Z,30.07
2022-08-03T20:49:29.955Z,30.00
2022-08-03T20:51:19.938Z,29.96
2022-08-03T20:53:12.102Z,29.91
2022-08-03T20:54:45.037Z,29.90
2022-08-03T20:56:18.321Z,29.93
2022-08-03T20:57:51.747Z,29.94
2022-08-03T20:59:23.974Z,29.91
2022-08-03T21:00:57.676Z,29.91
2022-08-03T21:02:31.195Z,29.89
2022-08-03T21:04:09.510Z,29.85
2022-08-03T21:05:51.373Z,29.79
2022-08-03T21:08:04.096Z,29.72
2022-08-03T21:09:19.765Z,29.71